createdAt,value
2019-01-24T00:01:06.448Z,35.13
2019-01-24T00:03:35.824Z,31.53
2019-01-24T00:06:05.740Z,35.60
2019-01-24T00:08:35.114Z,30.67
2019-01-24T00:11:04.959Z,34.67
2019-01-24T00:13:34.672Z,34.77
2019-01-24T00:16:04.423Z,32.60
2019-01-24T00:18:33.885Z,36.33
2019-01-24T00:21:04.027Z,35.07
2019-01-24T00:23:33.484Z,32.50
2019-01-24T00:26:02.647Z,34.87
2019-01-24T00:28:32.361Z,33.80
2019-01-24T00:31:02.534Z,38.50
2019-01-24T00:33:32.286Z,32.03
2019-01-24T00:36:02.299Z,35.40
2019-01-24T00:38:31.715Z,36.00
2019-01-24T00:41:01.184Z,38.23
2019-01-24T00:43:30.667Z,35.90
2019-01-24T00:46:00.743Z,37.00
2019-01-24T00:48:30.183Z,30.60
2019-01-24T00:50:59.343Z,36.23
2019-01-24T00:53:29.164Z,32.07
2019-01-24T00:55:58.215Z,34.03
2019-01-24T00:58:28.440Z,30.87
2019-01-24T01:00:57.912Z,34.07
2019-01-24T01:03:26.994Z,26.80
2019-01-24T01:05:56.100Z,25.90
2019-01-24T01:08:44.361Z,28.97
2019-01-24T01:11:14.201Z,25.67
2019-01-24T01:13:44.091Z,30.07
2019-01-24T01:16:13.284Z,30.27
2019-01-24T01:18:42.796Z,28.27
2019-01-24T01:21:11.940Z,27.50
2019-01-24T01:23:41.418Z,32.97
2019-01-24T01:26:10.844Z,34.80
2019-01-24T01:28:40.241Z,27.80
2019-01-24T01:31:10.055Z,30.70
2019-01-24T01:33:39.525Z,27.07
2019-01-24T01:36:09.682Z,29.13
2019-01-24T01:38:39.449Z,30.90
2019-01-24T01:41:09.188Z,31.87
2019-01-24T01:43:38.653Z,29.27
2019-01-24T01:46:07.719Z,29.07
2019-01-24T01:48:38.190Z,28.77
2019-01-24T01:51:07.262Z,29.30
2019-01-24T01:53:37.228Z,27.93
2019-01-24T01:56:06.978Z,28.43
2019-01-24T01:58:37.011Z,31.93
2019-01-24T02:01:06.970Z,23.73
2019-01-24T02:03:36.535Z,26.13
2019-01-24T02:06:06.323Z,29.13
2019-01-24T02:08:35.554Z,30.30
2019-01-24T02:11:05.267Z,26.33
2019-01-24T02:13:34.724Z,26.03
2019-01-24T02:16:03.812Z,28.77
2019-01-24T02:18:33.625Z,26.87
2019-01-24T02:21:03.158Z,30.93
2019-01-24T02:23:32.510Z,32.33
2019-01-24T02:26:20.805Z,30.43
2019-01-24T02:28:50.434Z,27.90
2019-01-24T02:31:19.543Z,29.27
2019-01-24T02:33:48.997Z,30.23
2019-01-24T02:36:18.447Z,26.87
2019-01-24T02:38:48.450Z,28.97
2019-01-24T02:41:18.380Z,29.17
2019-01-24T02:43:48.007Z,27.73
2019-01-24T02:46:17.788Z,26.43
2019-01-24T02:48:47.575Z,29.77
2019-01-24T02:51:16.723Z,27.67
2019-01-24T02:53:46.867Z,29.23
2019-01-24T02:56:15.948Z,30.50
2019-01-24T02:58:45.580Z,26.80
2019-01-24T03:01:15.228Z,26.07
2019-01-24T03:03:44.643Z,26.43
2019-01-24T03:06:13.725Z,24.90
2019-01-24T03:08:43.460Z,23.50
2019-01-24T03:11:13.666Z,25.00
2019-01-24T03:13:42.732Z,22.70
2019-01-24T03:16:12.180Z,26.17
2019-01-24T03:18:41.701Z,24.03
2019-01-24T03:21:11.098Z,26.83
2019-01-24T03:23:40.314Z,24.60
2019-01-24T03:26:09.745Z,22.43
2019-01-24T03:28:38.883Z,25.80
2019-01-24T03:31:08.397Z,25.70
2019-01-24T03:33:37.528Z,28.60
2019-01-24T03:36:07.537Z,23.40
2019-01-24T03:38:37.300Z,19.67
2019-01-24T03:41:07.494Z,23.67
2019-01-24T03:43:36.892Z,23.93
2019-01-24T03:46:06.095Z,26.13
2019-01-24T03:48:35.524Z,18.67
2019-01-24T03:51:04.898Z,25.73
2019-01-24T03:53:34.352Z,24.77
2019-01-24T03:56:03.487Z,23.40
2019-01-24T03:58:33.261Z,22.83
2019-01-24T04:01:02.982Z,23.27
2019-01-24T04:03:32.201Z,21.77
2019-01-24T04:06:02.111Z,20.37
2019-01-24T04:08:31.207Z,23.70
2019-01-24T04:11:00.334Z,24.27
2019-01-24T04:13:29.800Z,22.60
2019-01-24T04:15:59.276Z,23.17
2019-01-24T04:18:29.402Z,24.20
2019-01-24T04:21:17.976Z,23.63
2019-01-24T04:23:47.748Z,27.33
2019-01-24T04:26:17.216Z,22.50
2019-01-24T04:28:46.673Z,23.73
2019-01-24T04:31:16.382Z,21.40
2019-01-24T04:33:46.515Z,27.27
2019-01-24T04:36:16.216Z,24.73
2019-01-24T04:38:46.835Z,23.13
2019-01-24T04:41:16.260Z,25.87
2019-01-24T04:43:45.843Z,20.53
2019-01-24T04:46:15.566Z,24.87
2019-01-24T04:48:45.634Z,23.37
2019-01-24T04:51:14.996Z,25.67
2019-01-24T04:53:44.360Z,21.37
2019-01-24T04:56:13.812Z,21.77
2019-01-24T04:58:43.210Z,21.60
2019-01-24T05:01:12.633Z,22.07
2019-01-24T05:03:42.107Z,23.40
2019-01-24T05:06:11.910Z,22.13
2019-01-24T05:08:42.016Z,26.00
2019-01-24T05:11:11.122Z,20.57
2019-01-24T05:13:41.179Z,32.50
2019-01-24T05:16:10.603Z,23.47
2019-01-24T05:18:39.998Z,24.90
2019-01-24T05:21:09.454Z,25.97
2019-01-24T05:23:39.105Z,27.80
2019-01-24T05:26:08.576Z,28.30
2019-01-24T05:28:38.191Z,26.07
2019-01-24T05:31:08.132Z,23.50
2019-01-24T05:33:37.820Z,26.53
2019-01-24T05:36:07.698Z,26.43
2019-01-24T05:38:37.141Z,28.90
2019-01-24T05:41:06.498Z,26.97
2019-01-24T05:43:36.558Z,26.00
2019-01-24T05:46:05.647Z,31.40
2019-01-24T05:48:35.689Z,28.67
2019-01-24T05:51:05.142Z,24.30
2019-01-24T05:53:34.643Z,31.67
2019-01-24T05:56:04.066Z,25.77
2019-01-24T05:58:33.481Z,23.70
2019-01-24T06:01:04.832Z,29.77
2019-01-24T06:03:34.630Z,24.90
2019-01-24T06:06:04.444Z,27.03
2019-01-24T06:08:53.398Z,25.77
2019-01-24T06:11:22.817Z,22.27
2019-01-24T06:13:52.234Z,26.37
2019-01-24T06:16:21.417Z,26.60
2019-01-24T06:18:51.123Z,20.97
2019-01-24T06:21:21.254Z,25.33
2019-01-24T06:23:50.401Z,25.13
2019-01-24T06:26:19.767Z,28.50
2019-01-24T06:28:49.168Z,24.43
2019-01-24T06:31:18.548Z,26.40
2019-01-24T06:33:48.397Z,24.23
2019-01-24T06:36:18.096Z,25.17
2019-01-24T06:38:47.833Z,27.93
2019-01-24T06:41:17.538Z,26.33
2019-01-24T06:43:47.333Z,23.97
2019-01-24T06:46:16.874Z,29.77
2019-01-24T06:48:46.016Z,24.00
2019-01-24T06:51:16.117Z,22.97
2019-01-24T06:53:45.449Z,31.57
2019-01-24T06:56:15.700Z,26.77
2019-01-24T06:58:44.754Z,26.77
2019-01-24T07:01:14.231Z,27.67
2019-01-24T07:03:44.031Z,27.80
2019-01-24T07:06:13.434Z,27.43
2019-01-24T07:08:43.240Z,29.63
2019-01-24T07:11:12.658Z,26.73
2019-01-24T07:13:41.742Z,30.20
2019-01-24T07:16:12.222Z,28.67
2019-01-24T07:18:42.004Z,35.60
2019-01-24T07:21:11.777Z,29.70
2019-01-24T07:23:41.578Z,33.60
2019-01-24T07:26:11.055Z,33.67
2019-01-24T07:28:40.753Z,36.13
2019-01-24T07:31:10.394Z,26.97
2019-01-24T07:33:41.303Z,36.33
2019-01-24T07:36:11.213Z,31.70
2019-01-24T07:38:40.674Z,31.20
2019-01-24T07:41:09.786Z,34.20
2019-01-24T07:43:38.915Z,34.10
2019-01-24T07:46:08.675Z,40.33
2019-01-24T07:48:38.160Z,35.90
2019-01-24T07:51:07.509Z,38.23
2019-01-24T07:53:37.358Z,34.33
2019-01-24T07:56:07.460Z,35.93
2019-01-24T07:58:36.532Z,32.70
2019-01-24T08:01:05.991Z,31.30
2019-01-24T08:03:36.028Z,36.17
2019-01-24T08:06:09.137Z,35.60
2019-01-24T08:08:37.296Z,34.60
2019-01-24T08:11:07.198Z,31.80
2019-01-24T08:13:36.908Z,29.03
2019-01-24T08:16:07.450Z,30.07
2019-01-24T08:18:36.534Z,26.03
2019-01-24T08:21:06.004Z,26.17
2019-01-24T08:23:35.532Z,23.03
2019-01-24T08:26:05.075Z,22.97
2019-01-24T08:28:34.484Z,25.60
2019-01-24T08:31:04.558Z,24.33
2019-01-24T08:33:34.626Z,21.97
2019-01-24T08:36:05.009Z,30.57
2019-01-24T08:38:34.207Z,18.63
2019-01-24T08:41:03.890Z,28.27
2019-01-24T08:43:33.346Z,25.53
2019-01-24T08:46:02.873Z,27.77
2019-01-24T08:48:32.580Z,29.70
2019-01-24T08:51:01.995Z,29.63
2019-01-24T08:53:32.214Z,27.70
2019-01-24T08:56:01.741Z,31.40
2019-01-24T08:58:31.188Z,29.47
2019-01-24T09:01:00.726Z,30.17
2019-01-24T09:03:29.794Z,36.43
2019-01-24T09:05:58.956Z,31.07
2019-01-24T09:08:28.166Z,29.57
2019-01-24T09:10:57.652Z,27.23
2019-01-24T09:13:27.176Z,26.90
2019-01-24T09:15:56.771Z,31.77
2019-01-24T09:18:26.225Z,37.13
2019-01-24T09:20:56.906Z,28.30
2019-01-24T09:23:26.544Z,38.00
2019-01-24T09:25:56.652Z,35.83
2019-01-24T09:28:25.807Z,38.83
2019-01-24T09:30:56.095Z,37.33
2019-01-24T09:33:25.768Z,32.93
2019-01-24T09:35:55.486Z,31.93
2019-01-24T09:38:24.991Z,30.80
2019-01-24T09:40:55.135Z,32.53
2019-01-24T09:43:24.225Z,32.03
2019-01-24T09:45:53.984Z,28.47
2019-01-24T09:48:23.418Z,32.00
2019-01-24T09:50:53.077Z,28.73
2019-01-24T09:53:22.637Z,31.50
2019-01-24T09:56:11.036Z,24.23
2019-01-24T09:58:41.207Z,34.13
2019-01-24T10:01:10.711Z,27.57
2019-01-24T10:03:40.570Z,31.57
2019-01-24T10:06:10.364Z,28.47
2019-01-24T10:08:40.132Z,24.13
2019-01-24T10:11:09.227Z,28.60
2019-01-24T10:13:38.375Z,26.87
2019-01-24T10:16:07.797Z,26.10
2019-01-24T10:18:36.878Z,22.70
2019-01-24T10:21:06.964Z,24.07
2019-01-24T10:23:36.742Z,26.07
2019-01-24T10:26:06.188Z,22.57
2019-01-24T10:28:36.027Z,21.73
2019-01-24T10:31:05.464Z,27.77
2019-01-24T10:33:35.185Z,30.83
2019-01-24T10:36:05.368Z,31.60
2019-01-24T10:38:34.817Z,31.20
2019-01-24T10:41:04.222Z,28.53
2019-01-24T10:43:33.614Z,28.40
2019-01-24T10:46:03.326Z,29.20
2019-01-24T10:48:32.737Z,25.00
2019-01-24T10:51:02.157Z,28.47
2019-01-24T10:53:31.527Z,28.50
2019-01-24T10:56:00.950Z,27.20
2019-01-24T10:58:30.307Z,25.70
2019-01-24T11:00:59.768Z,30.90
2019-01-24T11:03:29.726Z,32.13
2019-01-24T11:05:58.796Z,29.80
2019-01-24T11:08:28.864Z,32.60
2019-01-24T11:10:58.664Z,29.40
2019-01-24T11:13:28.096Z,28.60
2019-01-24T11:15:57.947Z,30.37
2019-01-24T11:18:27.775Z,30.03
2019-01-24T11:20:57.517Z,29.10
2019-01-24T11:23:26.896Z,28.73
2019-01-24T11:25:56.307Z,25.83
2019-01-24T11:28:25.664Z,28.73
2019-01-24T11:30:55.401Z,29.50
2019-01-24T11:33:24.539Z,26.30
2019-01-24T11:35:53.971Z,28.67
2019-01-24T11:38:23.413Z,27.00
2019-01-24T11:40:53.252Z,29.77
2019-01-24T11:43:23.099Z,28.67
2019-01-24T11:45:52.452Z,26.77
2019-01-24T11:48:21.561Z,30.90
2019-01-24T11:50:51.185Z,29.87
2019-01-24T11:53:21.246Z,28.77
2019-01-24T11:55:50.417Z,25.17
2019-01-24T11:58:19.769Z,24.00
2019-01-24T12:00:54.934Z,25.87
2019-01-24T12:03:24.437Z,27.10
2019-01-24T12:05:54.017Z,30.53
2019-01-24T12:08:23.418Z,27.10
2019-01-24T12:10:52.774Z,23.17
2019-01-24T12:13:22.276Z,25.20
2019-01-24T12:15:51.647Z,23.97
2019-01-24T12:18:21.090Z,24.73
2019-01-24T12:20:50.239Z,28.50
2019-01-24T12:23:19.588Z,26.77
2019-01-24T12:25:50.059Z,27.00
2019-01-24T12:28:19.547Z,24.87
2019-01-24T12:30:49.310Z,28.43
2019-01-24T12:33:19.396Z,26.90
2019-01-24T12:35:49.232Z,28.83
2019-01-24T12:38:18.449Z,29.50
2019-01-24T12:40:47.846Z,28.30
2019-01-24T12:43:17.431Z,30.73
2019-01-24T12:45:47.342Z,30.50
2019-01-24T12:48:16.718Z,28.40
2019-01-24T12:50:46.450Z,27.50
2019-01-24T12:53:15.931Z,26.70
2019-01-24T12:55:45.366Z,34.60
2019-01-24T12:58:15.125Z,29.57
2019-01-24T13:00:44.778Z,31.27
2019-01-24T13:03:16.188Z,29.13
2019-01-24T13:05:45.669Z,34.70
2019-01-24T13:08:14.850Z,32.93
2019-01-24T13:10:44.678Z,30.03
2019-01-24T13:13:14.051Z,31.17
2019-01-24T13:15:43.468Z,30.17
2019-01-24T13:18:13.320Z,27.10
2019-01-24T13:20:43.108Z,27.07
2019-01-24T13:23:12.587Z,29.07
2019-01-24T13:25:41.948Z,29.83
2019-01-24T13:28:11.562Z,26.10
2019-01-24T13:30:41.013Z,30.97
2019-01-24T13:33:11.249Z,30.13
2019-01-24T13:35:40.671Z,30.53
2019-01-24T13:38:10.409Z,27.30
2019-01-24T13:40:40.199Z,32.10
2019-01-24T13:43:10.308Z,33.10
2019-01-24T13:45:40.557Z,32.13
2019-01-24T13:48:10.108Z,31.63
2019-01-24T13:50:39.342Z,30.90
2019-01-24T13:53:08.467Z,29.63
2019-01-24T13:55:39.462Z,35.13
2019-01-24T13:58:09.548Z,30.27
2019-01-24T14:00:40.980Z,29.60
2019-01-24T14:03:19.897Z,28.57
2019-01-24T14:05:50.514Z,35.20
2019-01-24T14:08:20.569Z,36.03
2019-01-24T14:10:50.159Z,31.67
2019-01-24T14:13:19.338Z,45.27
2019-01-24T14:15:48.803Z,27.93
2019-01-24T14:18:19.325Z,27.23
2019-01-24T14:20:49.055Z,29.37
2019-01-24T14:23:18.628Z,27.23
2019-01-24T14:25:48.075Z,30.60
2019-01-24T14:28:19.524Z,30.80
2019-01-24T14:30:49.599Z,27.20
2019-01-24T14:33:19.433Z,29.53
2019-01-24T14:35:49.098Z,32.60
2019-01-24T14:38:18.573Z,33.47
2019-01-24T14:40:48.133Z,28.80
2019-01-24T14:43:17.804Z,29.03
2019-01-24T14:45:47.513Z,29.23
2019-01-24T14:48:17.102Z,28.03
2019-01-24T14:50:46.725Z,30.33
2019-01-24T14:53:16.011Z,29.40
2019-01-24T14:55:45.155Z,32.77
2019-01-24T14:58:14.626Z,29.93
2019-01-24T15:00:51.660Z,28.77
2019-01-24T15:03:21.054Z,26.07
2019-01-24T15:05:50.805Z,29.37
2019-01-24T15:08:20.763Z,30.87
2019-01-24T15:10:50.250Z,28.90
2019-01-24T15:13:20.023Z,26.33
2019-01-24T15:15:50.549Z,30.87
2019-01-24T15:18:20.702Z,27.47
2019-01-24T15:20:49.788Z,27.07
2019-01-24T15:23:19.087Z,26.17
2019-01-24T15:25:49.043Z,29.90
2019-01-24T15:28:18.612Z,27.90
2019-01-24T15:30:48.645Z,28.87
2019-01-24T15:33:18.160Z,27.80
2019-01-24T15:35:48.604Z,28.97
2019-01-24T15:38:17.771Z,31.90
2019-01-24T15:40:47.558Z,30.53
2019-01-24T15:43:16.991Z,24.57
2019-01-24T15:45:46.767Z,37.70
2019-01-24T15:48:16.129Z,26.87
2019-01-24T15:50:45.576Z,31.20
2019-01-24T15:53:15.588Z,33.43
2019-01-24T15:55:45.151Z,27.10
2019-01-24T15:58:15.075Z,40.37
2019-01-24T16:00:44.581Z,34.13
2019-01-24T16:03:14.461Z,35.57
2019-01-24T16:05:44.497Z,33.03
2019-01-24T16:08:14.290Z,33.40
2019-01-24T16:10:44.005Z,35.43
2019-01-24T16:13:14.283Z,29.73
2019-01-24T16:15:44.611Z,28.37
2019-01-24T16:18:14.357Z,26.60
2019-01-24T16:20:44.121Z,29.30
2019-01-24T16:23:13.776Z,27.33
2019-01-24T16:25:43.573Z,25.27
2019-01-24T16:28:13.380Z,24.90
2019-01-24T16:30:42.968Z,26.57
2019-01-24T16:33:12.519Z,26.37
2019-01-24T16:35:41.684Z,24.67
2019-01-24T16:38:11.272Z,31.83
2019-01-24T16:40:40.915Z,26.53
2019-01-24T16:43:11.019Z,29.47
2019-01-24T16:45:41.012Z,24.83
2019-01-24T16:48:10.218Z,21.87
2019-01-24T16:50:39.383Z,23.43
2019-01-24T16:53:08.971Z,26.10
2019-01-24T16:55:38.472Z,25.37
2019-01-24T16:58:08.152Z,25.90
2019-01-24T17:00:40.788Z,28.00
2019-01-24T17:03:10.687Z,30.63
2019-01-24T17:05:40.245Z,24.03
2019-01-24T17:08:16.464Z,22.10
2019-01-24T17:10:41.825Z,23.10
2019-01-24T17:13:11.777Z,22.83
2019-01-24T17:15:42.270Z,26.17
2019-01-24T17:18:12.055Z,20.93
2019-01-24T17:20:41.280Z,23.33
2019-01-24T17:23:11.086Z,20.60
2019-01-24T17:25:40.354Z,20.13
2019-01-24T17:28:10.526Z,23.57
2019-01-24T17:30:39.741Z,22.07
2019-01-24T17:33:09.465Z,22.23
2019-01-24T17:35:38.674Z,26.77
2019-01-24T17:38:07.776Z,22.53
2019-01-24T17:40:37.552Z,24.97
2019-01-24T17:43:07.133Z,21.93
2019-01-24T17:45:36.652Z,29.17
2019-01-24T17:48:06.385Z,26.73
2019-01-24T17:50:35.981Z,23.73
2019-01-24T17:53:05.244Z,22.50
2019-01-24T17:55:37.084Z,25.67
2019-01-24T17:58:08.647Z,20.43
2019-01-24T18:00:39.572Z,22.43
2019-01-24T18:03:09.662Z,21.40
2019-01-24T18:05:39.193Z,22.90
2019-01-24T18:08:08.681Z,25.07
2019-01-24T18:10:38.497Z,27.40
2019-01-24T18:13:08.815Z,27.53
2019-01-24T18:15:38.424Z,24.67
2019-01-24T18:18:10.224Z,37.73
2019-01-24T18:20:39.905Z,28.40
2019-01-24T18:23:09.664Z,26.00
2019-01-24T18:25:38.980Z,27.57
2019-01-24T18:28:10.415Z,30.90
2019-01-24T18:30:40.495Z,30.60
2019-01-24T18:33:09.741Z,27.37
2019-01-24T18:35:40.059Z,29.67
2019-01-24T18:38:10.384Z,30.13
2019-01-24T18:40:40.091Z,27.33
2019-01-24T18:43:13.726Z,28.77
2019-01-24T18:45:46.821Z,37.07
2019-01-24T18:48:16.812Z,36.40
2019-01-24T18:50:46.087Z,35.37
2019-01-24T18:53:15.493Z,33.03
2019-01-24T18:55:44.776Z,39.17
2019-01-24T18:58:14.115Z,40.93
2019-01-24T19:00:46.239Z,36.57
2019-01-24T19:03:16.458Z,36.10
2019-01-24T19:05:47.747Z,33.57
2019-01-24T19:08:18.571Z,27.80
2019-01-24T19:10:48.095Z,32.60
2019-01-24T19:13:17.381Z,32.67
2019-01-24T19:15:48.684Z,31.57
2019-01-24T19:18:18.698Z,35.13
2019-01-24T19:20:52.185Z,32.50
2019-01-24T19:23:21.676Z,29.50
2019-01-24T19:25:51.458Z,30.53
2019-01-24T19:28:21.549Z,33.37
2019-01-24T19:30:50.877Z,31.67
2019-01-24T19:33:20.944Z,31.27
2019-01-24T19:35:51.224Z,35.30
2019-01-24T19:38:20.704Z,31.80
2019-01-24T19:40:50.305Z,29.60
2019-01-24T19:43:19.660Z,32.90
2019-01-24T19:45:48.989Z,29.93
2019-01-24T19:48:19.323Z,32.77
2019-01-24T19:50:49.635Z,28.47
2019-01-24T19:53:19.206Z,29.03
2019-01-24T19:55:48.640Z,33.90
2019-01-24T19:58:17.769Z,27.53
2019-01-24T20:00:47.238Z,25.90
2019-01-24T20:03:17.035Z,27.53
2019-01-24T20:05:46.547Z,31.53
2019-01-24T20:08:16.186Z,32.17
2019-01-24T20:10:46.047Z,30.33
2019-01-24T20:13:16.110Z,27.07
2019-01-24T20:15:46.673Z,28.57
2019-01-24T20:18:16.335Z,34.27
2019-01-24T20:20:46.045Z,29.37
2019-01-24T20:23:16.022Z,32.63
2019-01-24T20:25:45.257Z,35.93
2019-01-24T20:28:15.106Z,30.50
2019-01-24T20:30:44.447Z,28.73
2019-01-24T20:33:14.680Z,30.40
2019-01-24T20:35:50.656Z,37.27
2019-01-24T20:38:20.671Z,26.50
2019-01-24T20:40:50.424Z,34.30
2019-01-24T20:43:20.697Z,33.93
2019-01-24T20:45:49.963Z,41.33
2019-01-24T20:48:20.001Z,41.23
2019-01-24T20:50:50.040Z,37.00
2019-01-24T20:53:19.700Z,29.63
2019-01-24T20:55:49.287Z,30.60
2019-01-24T20:58:19.164Z,33.00
2019-01-24T21:00:48.731Z,34.00
2019-01-24T21:03:18.399Z,33.37
2019-01-24T21:05:48.895Z,33.70
2019-01-24T21:08:18.669Z,30.57
2019-01-24T21:10:48.783Z,31.20
2019-01-24T21:13:18.002Z,33.33
2019-01-24T21:15:48.107Z,34.80
2019-01-24T21:18:17.435Z,32.03
2019-01-24T21:20:47.221Z,32.17
2019-01-24T21:23:17.774Z,28.57
2019-01-24T21:25:47.300Z,33.17
2019-01-24T21:28:17.316Z,31.40
2019-01-24T21:30:47.260Z,29.90
2019-01-24T21:33:17.143Z,30.40
2019-01-24T21:35:47.300Z,35.63
2019-01-24T21:38:16.831Z,29.80
2019-01-24T21:40:46.331Z,33.13
2019-01-24T21:43:15.481Z,34.30
2019-01-24T21:45:45.069Z,30.47
2019-01-24T21:48:14.339Z,34.17
2019-01-24T21:50:44.378Z,35.77
2019-01-24T21:53:13.579Z,36.20
2019-01-24T21:55:43.541Z,33.73
2019-01-24T21:58:13.024Z,35.63
2019-01-24T22:00:42.145Z,32.90
2019-01-24T22:03:11.915Z,33.33
2019-01-24T22:05:42.188Z,34.43
2019-01-24T22:08:11.966Z,37.50
2019-01-24T22:10:41.985Z,33.03
2019-01-24T22:13:11.186Z,35.77
2019-01-24T22:15:40.403Z,37.37
2019-01-24T22:18:10.518Z,30.30
2019-01-24T22:20:40.148Z,37.47
2019-01-24T22:23:09.505Z,33.47
2019-01-24T22:25:39.081Z,32.87
2019-01-24T22:28:09.611Z,34.83
2019-01-24T22:30:44.082Z,36.10
2019-01-24T22:33:14.404Z,36.33
2019-01-24T22:35:44.096Z,35.00
2019-01-24T22:38:13.918Z,37.10
2019-01-24T22:40:43.748Z,37.57
2019-01-24T22:43:13.640Z,40.80
2019-01-24T22:45:43.071Z,34.17
2019-01-24T22:48:12.869Z,34.97
2019-01-24T22:50:43.817Z,35.73
2019-01-24T22:53:13.282Z,39.17
2019-01-24T22:55:42.446Z,37.13
2019-01-24T22:58:12.571Z,33.30
2019-01-24T23:01:22.038Z,38.17
2019-01-24T23:03:56.820Z,37.93
2019-01-24T23:06:26.865Z,37.50
2019-01-24T23:08:56.630Z,39.40
2019-01-24T23:11:26.040Z,40.27
2019-01-24T23:13:55.440Z,37.57
2019-01-24T23:16:24.882Z,44.73
2019-01-24T23:18:54.664Z,36.00
2019-01-24T23:21:23.766Z,35.30
2019-01-24T23:23:53.640Z,39.97
2019-01-24T23:26:23.387Z,32.03
2019-01-24T23:28:53.150Z,39.27
2019-01-24T23:31:22.968Z,34.67
2019-01-24T23:33:53.071Z,33.77
2019-01-24T23:36:22.454Z,38.87
2019-01-24T23:38:51.690Z,41.83
2019-01-24T23:41:21.311Z,40.97
2019-01-24T23:43:51.158Z,34.60
2019-01-24T23:46:20.855Z,37.97
2019-01-24T23:48:50.735Z,41.03
2019-01-24T23:51:20.201Z,40.57
2019-01-24T23:53:49.359Z,36.73
2019-01-24T23:56:18.559Z,37.77
2019-01-24T23:58:48.116Z,38.23
